Saint Louis, Missouri
Traffic Map
Current Weather Conditions
Saint Louis, Missouri
Clear Haze
Clear
-3°
Feels Like: -3°
Wind Chill: -3° Ceiling: Unl
Heat Index: -3° Visibility: 5mi
Dew Point: -6° Wind: 0mph
Humidity: 81% Direction: ° ()
Pressure: 30.56in Gusts: 0mph
Raw Report DataKCPS 021553Z 00000KT 5SM HZ CLR M03/M06 A3056 RMK AO2 SLP355 T10281056
Traffic Incident Summary
Active as of:
Severity:
Category:
InformationThere was an issue retrieving the traffic information for this location. Please try a different location or try again shortly.
Advertisements
Track Severe Weather on mobile